Gran Canaria > ESTACION METEOROLÓGICA Acusa - Artenara

DATOS ACTUALES Online

Ultima actulizacion 41 minutos

13.3 ºC

Temperatura

83

Humedad (%)

907.63

Presión (mb)

0

Precipitación (mm)

20.2 N

Viento (Km/h)

DATOS DIARIOS

Temperatura últimas 24 horas (ºC)

Humedad últimas 24 horas (%)

Presión atmosférica últimas 24 horas (mb)

Precipitaciones últimas 23 horas (mm)

Viento últimas 24 horas (Km/h)

Hora Temperatura (°C) ºC Precipitación (mm) mm Presión (mb) mb Humedad (%) % Viento (Km/h) km/h
29 - 00:00 11.8 0 908 89 23.8 NO
29 - 01:00 11.2 0 908 92 24.5 NO
29 - 02:00 11.1 0 907 92 24.1 NO
29 - 03:00 10.8 0 907 93 27.2 NO
29 - 04:00 10.6 0 907 91 23.2 NO
29 - 05:00 10.3 0 907 93 20.2 NO
29 - 06:00 10.1 0 907 94 17.2 NO
29 - 07:00 10.7 0 907 94 7.3 W
29 - 08:00 12.6 0 908 87 8.4 O
29 - 09:00 15.5 0 908 74 9.2 SO
29 - 10:00 17.3 0 908 65 11.8 O
29 - 11:00 19 0 908 59 13 S
29 - 12:00 19.5 0 908 59 14.7 SW
29 - 13:00 19.9 0 907 62 17.6 SW
29 - 14:00 19.8 0 907 62 16.7 W
29 - 15:00 18 0 907 69 24.3 NO
29 - 16:00 19.5 0 907 65 14.7 SW
29 - 17:00 18.8 0 907 68 22.9 NO
29 - 18:00 15.5 0 906 80 28.7 NO
29 - 19:00 13.7 0 907 83 31 NO
29 - 20:00 13.2 0 907 85 26.9 N
29 - 21:00 13 0 907 89 21.9 N
29 - 22:00 13.4 0 907 82 23.5 N
29 - 23:00 13.3 0 908 83 20.2 N
30 - 00:00
Apalmet utiliza cookies propias y de terceros para mejorar la usabilidad y la experiencia web. Política de cookies.